sensor_id;sensor_type;location;lat;lon;timestamp;P1;durP1;ratioP1;P2;durP2;ratioP2
77733;SDS011;66902;41.720;44.796;2023-10-19T00:00:17;15.90;;;12.80;;
77733;SDS011;66902;41.720;44.796;2023-10-19T00:03:11;18.40;;;14.00;;
77733;SDS011;66902;41.720;44.796;2023-10-19T00:05:45;14.70;;;13.10;;
77733;SDS011;66902;41.720;44.796;2023-10-19T00:08:19;17.50;;;15.70;;
77733;SDS011;66902;41.720;44.796;2023-10-19T00:10:54;18.00;;;16.10;;
77733;SDS011;66902;41.720;44.796;2023-10-19T00:13:33;23.40;;;17.50;;
77733;SDS011;66902;41.720;44.796;2023-10-19T00:16:09;22.20;;;18.30;;
77733;SDS011;66902;41.720;44.796;2023-10-19T00:18:47;23.90;;;18.60;;
77733;SDS011;66902;41.720;44.796;2023-10-19T00:21:22;19.10;;;17.10;;
77733;SDS011;66902;41.720;44.796;2023-10-19T00:23:58;25.10;;;20.40;;
77733;SDS011;66902;41.720;44.796;2023-10-19T00:29:07;17.20;;;14.30;;
77733;SDS011;66902;41.720;44.796;2023-10-19T00:32:00;16.70;;;12.10;;
77733;SDS011;66902;41.720;44.796;2023-10-19T00:37:09;16.10;;;10.70;;
77733;SDS011;66902;41.720;44.796;2023-10-19T00:39:50;13.60;;;12.20;;
77733;SDS011;66902;41.720;44.796;2023-10-19T00:42:26;14.20;;;10.60;;
77733;SDS011;66902;41.720;44.796;2023-10-19T00:45:02;12.10;;;10.30;;
77733;SDS011;66902;41.720;44.796;2023-10-19T00:47:37;16.40;;;12.50;;
77733;SDS011;66902;41.720;44.796;2023-10-19T00:50:13;16.40;;;13.00;;
77733;SDS011;66902;41.720;44.796;2023-10-19T00:52:52;16.10;;;10.60;;
77733;SDS011;66902;41.720;44.796;2023-10-19T00:55:27;19.90;;;13.20;;
77733;SDS011;66902;41.720;44.796;2023-10-19T00:58:05;13.90;;;12.00;;
77733;SDS011;66902;41.720;44.796;2023-10-19T01:00:44;19.00;;;16.20;;
77733;SDS011;66902;41.720;44.796;2023-10-19T01:03:20;19.10;;;17.10;;
77733;SDS011;66902;41.720;44.796;2023-10-19T01:06:02;22.90;;;17.70;;
77733;SDS011;66902;41.720;44.796;2023-10-19T01:08:42;20.40;;;15.90;;
77733;SDS011;66902;41.720;44.796;2023-10-19T01:11:17;21.30;;;18.00;;
77733;SDS011;66902;41.720;44.796;2023-10-19T01:13:51;19.60;;;16.60;;
77733;SDS011;66902;41.720;44.796;2023-10-19T01:16:25;17.30;;;15.50;;
77733;SDS011;66902;41.720;44.796;2023-10-19T01:18:59;15.90;;;13.90;;
77733;SDS011;66902;41.720;44.796;2023-10-19T01:21:36;19.10;;;14.00;;
77733;SDS011;66902;41.720;44.796;2023-10-19T01:24:21;14.50;;;12.60;;
77733;SDS011;66902;41.720;44.796;2023-10-19T01:27:09;14.80;;;13.20;;
77733;SDS011;66902;41.720;44.796;2023-10-19T01:29:45;12.90;;;11.50;;
77733;SDS011;66902;41.720;44.796;2023-10-19T01:32:22;22.10;;;15.50;;
77733;SDS011;66902;41.720;44.796;2023-10-19T01:34:56;19.40;;;15.80;;
77733;SDS011;66902;41.720;44.796;2023-10-19T01:37:30;18.40;;;15.20;;
77733;SDS011;66902;41.720;44.796;2023-10-19T01:40:09;21.30;;;17.20;;
77733;SDS011;66902;41.720;44.796;2023-10-19T01:42:51;28.20;;;18.00;;
77733;SDS011;66902;41.720;44.796;2023-10-19T01:45:25;25.00;;;17.30;;
77733;SDS011;66902;41.720;44.796;2023-10-19T01:48:00;18.60;;;16.50;;
77733;SDS011;66902;41.720;44.796;2023-10-19T01:50:34;19.60;;;17.40;;
77733;SDS011;66902;41.720;44.796;2023-10-19T01:53:11;21.30;;;16.90;;
77733;SDS011;66902;41.720;44.796;2023-10-19T01:55:45;14.90;;;12.80;;
77733;SDS011;66902;41.720;44.796;2023-10-19T01:58:27;21.70;;;15.60;;
77733;SDS011;66902;41.720;44.796;2023-10-19T02:01:04;21.30;;;15.70;;
77733;SDS011;66902;41.720;44.796;2023-10-19T02:03:45;19.20;;;14.20;;
77733;SDS011;66902;41.720;44.796;2023-10-19T02:06:23;14.70;;;13.20;;
77733;SDS011;66902;41.720;44.796;2023-10-19T02:09:07;18.10;;;14.20;;
77733;SDS011;66902;41.720;44.796;2023-10-19T02:11:48;14.70;;;12.40;;
77733;SDS011;66902;41.720;44.796;2023-10-19T02:14:26;14.00;;;10.20;;
77733;SDS011;66902;41.720;44.796;2023-10-19T02:17:02;11.30;;;8.20;;
77733;SDS011;66902;41.720;44.796;2023-10-19T02:19:37;10.40;;;8.30;;
77733;SDS011;66902;41.720;44.796;2023-10-19T02:22:10;8.70;;;7.30;;
77733;SDS011;66902;41.720;44.796;2023-10-19T02:24:45;11.70;;;7.70;;
77733;SDS011;66902;41.720;44.796;2023-10-19T02:27:19;8.10;;;7.20;;
77733;SDS011;66902;41.720;44.796;2023-10-19T02:30:01;9.80;;;8.40;;
77733;SDS011;66902;41.720;44.796;2023-10-19T02:32:36;8.00;;;6.50;;
77733;SDS011;66902;41.720;44.796;2023-10-19T02:35:12;8.50;;;7.30;;
77733;SDS011;66902;41.720;44.796;2023-10-19T02:37:46;8.20;;;7.30;;
77733;SDS011;66902;41.720;44.796;2023-10-19T02:40:21;11.90;;;8.40;;
77733;SDS011;66902;41.720;44.796;2023-10-19T02:43:01;9.10;;;8.20;;
77733;SDS011;66902;41.720;44.796;2023-10-19T02:45:37;9.60;;;8.50;;
77733;SDS011;66902;41.720;44.796;2023-10-19T02:48:13;12.90;;;8.70;;
77733;SDS011;66902;41.720;44.796;2023-10-19T02:50:47;13.00;;;9.10;;
77733;SDS011;66902;41.720;44.796;2023-10-19T02:53:21;11.20;;;9.30;;
77733;SDS011;66902;41.720;44.796;2023-10-19T02:55:54;13.30;;;9.70;;
77733;SDS011;66902;41.720;44.796;2023-10-19T02:58:31;10.90;;;9.70;;
77733;SDS011;66902;41.720;44.796;2023-10-19T03:01:12;10.40;;;8.90;;
77733;SDS011;66902;41.720;44.796;2023-10-19T03:03:51;12.10;;;10.60;;
77733;SDS011;66902;41.720;44.796;2023-10-19T03:06:30;12.90;;;10.80;;
77733;SDS011;66902;41.720;44.796;2023-10-19T03:09:05;15.30;;;11.90;;
77733;SDS011;66902;41.720;44.796;2023-10-19T03:11:45;14.60;;;13.00;;
77733;SDS011;66902;41.720;44.796;2023-10-19T03:14:23;19.50;;;13.70;;
77733;SDS011;66902;41.720;44.796;2023-10-19T03:16:58;17.70;;;15.60;;
77733;SDS011;66902;41.720;44.796;2023-10-19T03:19:33;19.60;;;16.90;;
77733;SDS011;66902;41.720;44.796;2023-10-19T03:22:08;21.90;;;18.60;;
77733;SDS011;66902;41.720;44.796;2023-10-19T03:24:42;23.60;;;19.40;;
77733;SDS011;66902;41.720;44.796;2023-10-19T03:27:17;21.50;;;19.00;;
77733;SDS011;66902;41.720;44.796;2023-10-19T03:29:53;23.60;;;19.50;;
77733;SDS011;66902;41.720;44.796;2023-10-19T03:32:30;21.90;;;17.80;;
77733;SDS011;66902;41.720;44.796;2023-10-19T03:35:06;20.00;;;17.80;;
77733;SDS011;66902;41.720;44.796;2023-10-19T03:37:45;20.00;;;17.30;;
77733;SDS011;66902;41.720;44.796;2023-10-19T03:40:21;22.20;;;18.00;;
77733;SDS011;66902;41.720;44.796;2023-10-19T03:43:01;20.70;;;17.50;;
77733;SDS011;66902;41.720;44.796;2023-10-19T03:45:47;24.40;;;18.30;;
77733;SDS011;66902;41.720;44.796;2023-10-19T03:48:23;22.10;;;18.30;;
77733;SDS011;66902;41.720;44.796;2023-10-19T03:51:01;21.10;;;16.90;;
77733;SDS011;66902;41.720;44.796;2023-10-19T03:53:36;23.60;;;16.80;;
77733;SDS011;66902;41.720;44.796;2023-10-19T03:56:14;19.10;;;17.00;;
77733;SDS011;66902;41.720;44.796;2023-10-19T03:58:48;21.50;;;14.60;;
77733;SDS011;66902;41.720;44.796;2023-10-19T04:01:23;21.40;;;15.40;;
77733;SDS011;66902;41.720;44.796;2023-10-19T04:03:59;24.60;;;20.70;;
77733;SDS011;66902;41.720;44.796;2023-10-19T04:06:33;20.40;;;15.90;;
77733;SDS011;66902;41.720;44.796;2023-10-19T04:09:08;19.20;;;16.00;;
77733;SDS011;66902;41.720;44.796;2023-10-19T04:11:45;24.00;;;17.50;;
77733;SDS011;66902;41.720;44.796;2023-10-19T04:14:21;21.10;;;16.20;;
77733;SDS011;66902;41.720;44.796;2023-10-19T04:16:55;17.60;;;15.20;;
77733;SDS011;66902;41.720;44.796;2023-10-19T04:19:29;16.50;;;14.00;;
77733;SDS011;66902;41.720;44.796;2023-10-19T04:22:03;22.20;;;13.20;;
77733;SDS011;66902;41.720;44.796;2023-10-19T04:24:42;17.40;;;13.60;;
77733;SDS011;66902;41.720;44.796;2023-10-19T04:27:16;17.20;;;13.20;;
77733;SDS011;66902;41.720;44.796;2023-10-19T04:32:27;21.00;;;13.60;;
77733;SDS011;66902;41.720;44.796;2023-10-19T04:35:03;17.50;;;13.50;;
77733;SDS011;66902;41.720;44.796;2023-10-19T04:37:39;13.80;;;11.30;;
77733;SDS011;66902;41.720;44.796;2023-10-19T04:40:16;15.50;;;13.10;;
77733;SDS011;66902;41.720;44.796;2023-10-19T04:42:51;15.00;;;12.60;;
77733;SDS011;66902;41.720;44.796;2023-10-19T04:45:27;18.30;;;15.10;;
77733;SDS011;66902;41.720;44.796;2023-10-19T04:48:01;18.60;;;15.00;;
77733;SDS011;66902;41.720;44.796;2023-10-19T04:50:37;20.00;;;16.20;;
77733;SDS011;66902;41.720;44.796;2023-10-19T04:53:13;19.30;;;15.90;;
77733;SDS011;66902;41.720;44.796;2023-10-19T04:55:48;20.70;;;16.00;;
77733;SDS011;66902;41.720;44.796;2023-10-19T04:58:21;18.70;;;16.00;;
77733;SDS011;66902;41.720;44.796;2023-10-19T05:00:55;22.50;;;17.00;;
77733;SDS011;66902;41.720;44.796;2023-10-19T05:03:29;20.10;;;17.70;;
77733;SDS011;66902;41.720;44.796;2023-10-19T05:06:05;25.70;;;19.40;;
77733;SDS011;66902;41.720;44.796;2023-10-19T05:08:39;20.30;;;16.70;;
77733;SDS011;66902;41.720;44.796;2023-10-19T05:11:13;31.90;;;25.70;;
77733;SDS011;66902;41.720;44.796;2023-10-19T05:13:47;22.90;;;18.50;;
77733;SDS011;66902;41.720;44.796;2023-10-19T05:16:20;35.00;;;28.50;;
77733;SDS011;66902;41.720;44.796;2023-10-19T05:18:54;26.20;;;18.10;;
77733;SDS011;66902;41.720;44.796;2023-10-19T05:21:28;19.70;;;15.60;;
77733;SDS011;66902;41.720;44.796;2023-10-19T05:24:02;19.60;;;15.60;;
77733;SDS011;66902;41.720;44.796;2023-10-19T05:26:37;17.10;;;14.90;;
77733;SDS011;66902;41.720;44.796;2023-10-19T05:29:11;18.60;;;16.50;;
77733;SDS011;66902;41.720;44.796;2023-10-19T05:31:45;20.00;;;16.00;;
77733;SDS011;66902;41.720;44.796;2023-10-19T05:34:23;19.40;;;16.50;;
77733;SDS011;66902;41.720;44.796;2023-10-19T05:36:59;18.20;;;14.70;;
77733;SDS011;66902;41.720;44.796;2023-10-19T05:39:35;18.50;;;12.50;;
77733;SDS011;66902;41.720;44.796;2023-10-19T05:42:09;17.80;;;13.80;;
77733;SDS011;66902;41.720;44.796;2023-10-19T05:44:42;16.70;;;12.50;;
77733;SDS011;66902;41.720;44.796;2023-10-19T05:47:16;11.40;;;9.40;;
77733;SDS011;66902;41.720;44.796;2023-10-19T05:49:49;9.90;;;8.50;;
77733;SDS011;66902;41.720;44.796;2023-10-19T05:52:23;6.70;;;5.80;;
77733;SDS011;66902;41.720;44.796;2023-10-19T05:54:57;9.30;;;7.40;;
77733;SDS011;66902;41.720;44.796;2023-10-19T05:57:31;10.80;;;8.50;;
77733;SDS011;66902;41.720;44.796;2023-10-19T06:00:08;12.40;;;7.60;;
77733;SDS011;66902;41.720;44.796;2023-10-19T06:02:48;9.20;;;7.40;;
77733;SDS011;66902;41.720;44.796;2023-10-19T06:05:23;9.60;;;8.40;;
77733;SDS011;66902;41.720;44.796;2023-10-19T06:07:57;8.70;;;6.90;;
77733;SDS011;66902;41.720;44.796;2023-10-19T06:10:31;9.70;;;8.30;;
77733;SDS011;66902;41.720;44.796;2023-10-19T06:13:05;11.10;;;7.70;;
77733;SDS011;66902;41.720;44.796;2023-10-19T06:15:40;9.90;;;7.70;;
77733;SDS011;66902;41.720;44.796;2023-10-19T06:18:14;9.60;;;7.80;;
77733;SDS011;66902;41.720;44.796;2023-10-19T06:20:48;6.60;;;5.80;;
77733;SDS011;66902;41.720;44.796;2023-10-19T06:23:24;7.10;;;6.40;;
77733;SDS011;66902;41.720;44.796;2023-10-19T06:25:58;9.30;;;7.10;;
77733;SDS011;66902;41.720;44.796;2023-10-19T06:28:35;8.20;;;6.60;;
77733;SDS011;66902;41.720;44.796;2023-10-19T06:31:11;14.40;;;8.10;;
77733;SDS011;66902;41.720;44.796;2023-10-19T06:33:45;6.70;;;5.40;;
77733;SDS011;66902;41.720;44.796;2023-10-19T06:36:19;8.20;;;7.00;;
77733;SDS011;66902;41.720;44.796;2023-10-19T06:38:53;7.20;;;6.50;;
77733;SDS011;66902;41.720;44.796;2023-10-19T06:41:26;6.80;;;6.20;;
77733;SDS011;66902;41.720;44.796;2023-10-19T06:44:00;7.10;;;6.40;;
77733;SDS011;66902;41.720;44.796;2023-10-19T06:46:34;6.90;;;6.20;;
77733;SDS011;66902;41.720;44.796;2023-10-19T06:49:09;8.70;;;7.80;;
77733;SDS011;66902;41.720;44.796;2023-10-19T06:51:45;8.20;;;6.20;;
77733;SDS011;66902;41.720;44.796;2023-10-19T06:54:19;10.10;;;6.90;;
77733;SDS011;66902;41.720;44.796;2023-10-19T06:56:53;8.00;;;7.20;;
77733;SDS011;66902;41.720;44.796;2023-10-19T06:59:27;11.00;;;7.60;;
77733;SDS011;66902;41.720;44.796;2023-10-19T07:02:03;12.40;;;8.50;;
77733;SDS011;66902;41.720;44.796;2023-10-19T07:04:38;11.70;;;8.90;;
77733;SDS011;66902;41.720;44.796;2023-10-19T07:07:12;8.90;;;6.60;;
77733;SDS011;66902;41.720;44.796;2023-10-19T07:09:46;13.20;;;11.30;;
77733;SDS011;66902;41.720;44.796;2023-10-19T07:12:24;12.00;;;7.10;;
77733;SDS011;66902;41.720;44.796;2023-10-19T07:14:58;8.40;;;6.70;;
77733;SDS011;66902;41.720;44.796;2023-10-19T07:17:33;6.30;;;4.00;;
77733;SDS011;66902;41.720;44.796;2023-10-19T07:20:10;5.20;;;3.60;;
77733;SDS011;66902;41.720;44.796;2023-10-19T07:22:56;3.60;;;3.20;;
77733;SDS011;66902;41.720;44.796;2023-10-19T07:25:36;3.50;;;2.60;;
77733;SDS011;66902;41.720;44.796;2023-10-19T07:28:14;9.80;;;6.20;;
77733;SDS011;66902;41.720;44.796;2023-10-19T07:30:50;5.90;;;4.30;;
77733;SDS011;66902;41.720;44.796;2023-10-19T07:33:24;5.00;;;3.70;;
77733;SDS011;66902;41.720;44.796;2023-10-19T07:35:59;3.60;;;2.70;;
77733;SDS011;66902;41.720;44.796;2023-10-19T07:38:38;8.60;;;4.90;;
77733;SDS011;66902;41.720;44.796;2023-10-19T07:41:16;7.40;;;5.00;;
77733;SDS011;66902;41.720;44.796;2023-10-19T07:43:50;11.10;;;5.80;;
77733;SDS011;66902;41.720;44.796;2023-10-19T07:46:24;11.80;;;5.60;;
77733;SDS011;66902;41.720;44.796;2023-10-19T07:48:59;17.60;;;5.30;;
77733;SDS011;66902;41.720;44.796;2023-10-19T07:51:33;5.90;;;3.20;;
77733;SDS011;66902;41.720;44.796;2023-10-19T07:54:08;7.20;;;4.80;;
77733;SDS011;66902;41.720;44.796;2023-10-19T07:56:42;8.20;;;5.10;;
77733;SDS011;66902;41.720;44.796;2023-10-19T07:59:18;10.20;;;6.30;;
77733;SDS011;66902;41.720;44.796;2023-10-19T08:01:52;7.90;;;4.80;;
77733;SDS011;66902;41.720;44.796;2023-10-19T08:04:26;13.10;;;7.10;;
77733;SDS011;66902;41.720;44.796;2023-10-19T08:07:01;8.80;;;4.00;;
77733;SDS011;66902;41.720;44.796;2023-10-19T08:09:35;7.90;;;6.70;;
77733;SDS011;66902;41.720;44.796;2023-10-19T08:12:09;11.10;;;5.00;;
77733;SDS011;66902;41.720;44.796;2023-10-19T08:14:43;8.20;;;4.50;;
77733;SDS011;66902;41.720;44.796;2023-10-19T08:17:18;14.00;;;4.20;;
77733;SDS011;66902;41.720;44.796;2023-10-19T08:19:52;8.20;;;4.00;;
77733;SDS011;66902;41.720;44.796;2023-10-19T08:22:27;19.30;;;8.60;;
77733;SDS011;66902;41.720;44.796;2023-10-19T08:25:03;8.40;;;5.20;;
77733;SDS011;66902;41.720;44.796;2023-10-19T08:27:41;7.20;;;4.80;;
77733;SDS011;66902;41.720;44.796;2023-10-19T08:30:17;14.20;;;6.30;;
77733;SDS011;66902;41.720;44.796;2023-10-19T08:32:57;11.10;;;3.40;;
77733;SDS011;66902;41.720;44.796;2023-10-19T08:35:34;20.80;;;6.00;;
77733;SDS011;66902;41.720;44.796;2023-10-19T08:38:07;6.20;;;5.20;;
77733;SDS011;66902;41.720;44.796;2023-10-19T08:40:42;12.50;;;5.30;;
77733;SDS011;66902;41.720;44.796;2023-10-19T08:43:16;19.50;;;5.10;;
77733;SDS011;66902;41.720;44.796;2023-10-19T08:45:51;12.60;;;4.40;;
77733;SDS011;66902;41.720;44.796;2023-10-19T08:48:27;17.40;;;6.10;;
77733;SDS011;66902;41.720;44.796;2023-10-19T08:51:01;12.60;;;4.60;;
77733;SDS011;66902;41.720;44.796;2023-10-19T08:53:40;9.30;;;2.70;;
77733;SDS011;66902;41.720;44.796;2023-10-19T08:56:14;7.00;;;2.60;;
77733;SDS011;66902;41.720;44.796;2023-10-19T08:58:48;3.90;;;2.60;;
77733;SDS011;66902;41.720;44.796;2023-10-19T09:01:24;5.60;;;2.10;;
77733;SDS011;66902;41.720;44.796;2023-10-19T09:03:59;3.00;;;1.70;;
77733;SDS011;66902;41.720;44.796;2023-10-19T09:06:36;6.20;;;3.10;;
77733;SDS011;66902;41.720;44.796;2023-10-19T09:09:12;2.70;;;1.60;;
77733;SDS011;66902;41.720;44.796;2023-10-19T09:11:49;3.40;;;2.10;;
77733;SDS011;66902;41.720;44.796;2023-10-19T09:14:32;4.50;;;1.60;;
77733;SDS011;66902;41.720;44.796;2023-10-19T09:17:11;3.60;;;1.50;;
77733;SDS011;66902;41.720;44.796;2023-10-19T09:19:45;7.30;;;1.70;;
77733;SDS011;66902;41.720;44.796;2023-10-19T09:22:20;3.90;;;1.90;;
77733;SDS011;66902;41.720;44.796;2023-10-19T09:24:55;4.30;;;1.50;;
77733;SDS011;66902;41.720;44.796;2023-10-19T09:27:29;3.70;;;1.80;;
77733;SDS011;66902;41.720;44.796;2023-10-19T09:30:05;7.60;;;3.40;;
77733;SDS011;66902;41.720;44.796;2023-10-19T09:32:43;8.00;;;2.70;;
77733;SDS011;66902;41.720;44.796;2023-10-19T09:35:18;9.80;;;2.70;;
77733;SDS011;66902;41.720;44.796;2023-10-19T09:37:53;6.90;;;2.60;;
77733;SDS011;66902;41.720;44.796;2023-10-19T09:40:28;8.10;;;2.20;;
77733;SDS011;66902;41.720;44.796;2023-10-19T09:43:04;7.80;;;2.30;;
77733;SDS011;66902;41.720;44.796;2023-10-19T09:45:41;10.40;;;3.00;;
77733;SDS011;66902;41.720;44.796;2023-10-19T09:48:20;4.10;;;2.00;;
77733;SDS011;66902;41.720;44.796;2023-10-19T09:51:01;7.30;;;2.20;;
77733;SDS011;66902;41.720;44.796;2023-10-19T09:53:48;4.60;;;1.50;;
77733;SDS011;66902;41.720;44.796;2023-10-19T09:56:26;2.50;;;2.00;;
77733;SDS011;66902;41.720;44.796;2023-10-19T09:59:05;5.10;;;2.00;;
77733;SDS011;66902;41.720;44.796;2023-10-19T10:04:38;5.90;;;2.10;;
77733;SDS011;66902;41.720;44.796;2023-10-19T10:07:18;2.30;;;1.60;;
77733;SDS011;66902;41.720;44.796;2023-10-19T10:10:13;2.90;;;1.60;;
77733;SDS011;66902;41.720;44.796;2023-10-19T10:12:51;3.30;;;1.60;;
77733;SDS011;66902;41.720;44.796;2023-10-19T10:15:40;4.20;;;2.00;;
77733;SDS011;66902;41.720;44.796;2023-10-19T10:18:18;3.70;;;2.50;;
77733;SDS011;66902;41.720;44.796;2023-10-19T10:21:05;5.20;;;2.30;;
77733;SDS011;66902;41.720;44.796;2023-10-19T10:23:44;3.00;;;2.00;;
77733;SDS011;66902;41.720;44.796;2023-10-19T10:26:20;3.30;;;1.60;;
77733;SDS011;66902;41.720;44.796;2023-10-19T10:29:10;5.00;;;1.70;;
77733;SDS011;66902;41.720;44.796;2023-10-19T10:31:50;2.90;;;1.60;;
77733;SDS011;66902;41.720;44.796;2023-10-19T10:37:15;3.30;;;1.50;;
77733;SDS011;66902;41.720;44.796;2023-10-19T10:39:52;3.90;;;2.90;;
77733;SDS011;66902;41.720;44.796;2023-10-19T10:42:34;5.80;;;2.60;;
77733;SDS011;66902;41.720;44.796;2023-10-19T10:45:20;3.60;;;2.40;;
77733;SDS011;66902;41.720;44.796;2023-10-19T10:47:55;6.40;;;2.70;;
77733;SDS011;66902;41.720;44.796;2023-10-19T10:50:31;4.30;;;3.10;;
77733;SDS011;66902;41.720;44.796;2023-10-19T10:53:06;2.60;;;2.00;;
77733;SDS011;66902;41.720;44.796;2023-10-19T10:55:41;8.90;;;3.10;;
77733;SDS011;66902;41.720;44.796;2023-10-19T10:58:16;3.10;;;2.80;;
77733;SDS011;66902;41.720;44.796;2023-10-19T11:00:50;4.20;;;3.20;;
77733;SDS011;66902;41.720;44.796;2023-10-19T11:03:25;6.40;;;2.70;;
77733;SDS011;66902;41.720;44.796;2023-10-19T11:06:04;5.90;;;3.80;;
77733;SDS011;66902;41.720;44.796;2023-10-19T11:08:39;2.60;;;1.80;;
77733;SDS011;66902;41.720;44.796;2023-10-19T11:11:12;4.40;;;2.40;;
77733;SDS011;66902;41.720;44.796;2023-10-19T11:13:46;4.00;;;1.90;;
77733;SDS011;66902;41.720;44.796;2023-10-19T11:16:23;7.30;;;2.50;;
77733;SDS011;66902;41.720;44.796;2023-10-19T11:18:57;2.70;;;2.20;;
77733;SDS011;66902;41.720;44.796;2023-10-19T11:21:31;4.60;;;1.60;;
77733;SDS011;66902;41.720;44.796;2023-10-19T11:24:06;5.60;;;2.00;;
77733;SDS011;66902;41.720;44.796;2023-10-19T11:26:40;2.90;;;2.50;;
77733;SDS011;66902;41.720;44.796;2023-10-19T11:29:16;3.00;;;2.40;;
77733;SDS011;66902;41.720;44.796;2023-10-19T11:31:58;3.30;;;2.30;;
77733;SDS011;66902;41.720;44.796;2023-10-19T11:34:32;2.90;;;2.00;;
77733;SDS011;66902;41.720;44.796;2023-10-19T11:37:08;6.00;;;3.40;;
77733;SDS011;66902;41.720;44.796;2023-10-19T11:39:44;3.30;;;1.80;;
77733;SDS011;66902;41.720;44.796;2023-10-19T11:42:19;2.90;;;1.70;;
77733;SDS011;66902;41.720;44.796;2023-10-19T11:44:53;3.00;;;1.60;;
77733;SDS011;66902;41.720;44.796;2023-10-19T11:47:27;3.40;;;1.40;;
77733;SDS011;66902;41.720;44.796;2023-10-19T11:50:02;1.60;;;1.10;;
77733;SDS011;66902;41.720;44.796;2023-10-19T11:52:37;2.10;;;1.10;;
77733;SDS011;66902;41.720;44.796;2023-10-19T11:55:11;3.40;;;1.10;;
77733;SDS011;66902;41.720;44.796;2023-10-19T11:57:46;1.20;;;0.60;;
77733;SDS011;66902;41.720;44.796;2023-10-19T12:00:21;5.00;;;1.70;;
77733;SDS011;66902;41.720;44.796;2023-10-19T12:03:04;6.40;;;2.30;;
77733;SDS011;66902;41.720;44.796;2023-10-19T12:05:39;5.30;;;2.10;;
77733;SDS011;66902;41.720;44.796;2023-10-19T12:08:14;3.40;;;2.10;;
77733;SDS011;66902;41.720;44.796;2023-10-19T12:10:51;4.60;;;2.90;;
77733;SDS011;66902;41.720;44.796;2023-10-19T12:13:28;7.00;;;3.90;;
77733;SDS011;66902;41.720;44.796;2023-10-19T12:16:03;4.00;;;3.10;;
77733;SDS011;66902;41.720;44.796;2023-10-19T12:18:38;7.30;;;2.90;;
77733;SDS011;66902;41.720;44.796;2023-10-19T12:21:12;4.60;;;2.60;;
77733;SDS011;66902;41.720;44.796;2023-10-19T12:23:48;2.20;;;2.00;;
77733;SDS011;66902;41.720;44.796;2023-10-19T12:26:25;3.70;;;2.00;;
77733;SDS011;66902;41.720;44.796;2023-10-19T12:29:01;3.30;;;2.10;;
77733;SDS011;66902;41.720;44.796;2023-10-19T12:31:40;5.60;;;1.60;;
77733;SDS011;66902;41.720;44.796;2023-10-19T12:34:14;4.80;;;2.60;;
77733;SDS011;66902;41.720;44.796;2023-10-19T12:36:49;2.90;;;1.10;;
77733;SDS011;66902;41.720;44.796;2023-10-19T12:39:25;2.50;;;1.80;;
77733;SDS011;66902;41.720;44.796;2023-10-19T12:42:13;6.50;;;2.20;;
77733;SDS011;66902;41.720;44.796;2023-10-19T12:44:47;5.00;;;1.30;;
77733;SDS011;66902;41.720;44.796;2023-10-19T12:47:21;3.80;;;1.50;;
77733;SDS011;66902;41.720;44.796;2023-10-19T12:49:56;2.70;;;1.30;;
77733;SDS011;66902;41.720;44.796;2023-10-19T12:52:31;4.20;;;2.60;;
77733;SDS011;66902;41.720;44.796;2023-10-19T12:55:08;2.40;;;1.20;;
77733;SDS011;66902;41.720;44.796;2023-10-19T12:57:42;5.00;;;2.20;;
77733;SDS011;66902;41.720;44.796;2023-10-19T13:00:17;5.10;;;2.00;;
77733;SDS011;66902;41.720;44.796;2023-10-19T13:03:03;3.70;;;2.00;;
77733;SDS011;66902;41.720;44.796;2023-10-19T13:05:39;6.50;;;3.00;;
77733;SDS011;66902;41.720;44.796;2023-10-19T13:08:14;3.00;;;1.80;;
77733;SDS011;66902;41.720;44.796;2023-10-19T13:10:49;3.90;;;1.50;;
77733;SDS011;66902;41.720;44.796;2023-10-19T13:13:33;4.00;;;1.90;;
77733;SDS011;66902;41.720;44.796;2023-10-19T13:16:08;3.50;;;1.90;;
77733;SDS011;66902;41.720;44.796;2023-10-19T13:18:44;3.60;;;2.50;;
77733;SDS011;66902;41.720;44.796;2023-10-19T13:21:20;2.20;;;1.80;;
77733;SDS011;66902;41.720;44.796;2023-10-19T13:23:58;2.50;;;1.60;;
77733;SDS011;66902;41.720;44.796;2023-10-19T13:26:33;6.20;;;2.40;;
77733;SDS011;66902;41.720;44.796;2023-10-19T13:29:08;3.80;;;1.00;;
77733;SDS011;66902;41.720;44.796;2023-10-19T13:31:43;3.60;;;2.40;;
77733;SDS011;66902;41.720;44.796;2023-10-19T13:34:21;3.70;;;1.30;;
77733;SDS011;66902;41.720;44.796;2023-10-19T13:36:56;3.00;;;2.10;;
77733;SDS011;66902;41.720;44.796;2023-10-19T13:39:32;2.30;;;1.70;;
77733;SDS011;66902;41.720;44.796;2023-10-19T13:42:08;9.40;;;1.20;;
77733;SDS011;66902;41.720;44.796;2023-10-19T13:44:43;3.00;;;1.10;;
77733;SDS011;66902;41.720;44.796;2023-10-19T13:47:21;2.80;;;1.10;;
77733;SDS011;66902;41.720;44.796;2023-10-19T13:49:55;4.30;;;1.40;;
77733;SDS011;66902;41.720;44.796;2023-10-19T13:52:31;3.60;;;2.10;;
77733;SDS011;66902;41.720;44.796;2023-10-19T13:55:07;7.80;;;1.60;;
77733;SDS011;66902;41.720;44.796;2023-10-19T14:00:17;4.60;;;1.80;;
77733;SDS011;66902;41.720;44.796;2023-10-19T14:02:55;4.20;;;1.30;;
77733;SDS011;66902;41.720;44.796;2023-10-19T14:05:35;4.20;;;1.80;;
77733;SDS011;66902;41.720;44.796;2023-10-19T14:08:13;5.50;;;1.60;;
77733;SDS011;66902;41.720;44.796;2023-10-19T14:10:48;6.20;;;1.80;;
77733;SDS011;66902;41.720;44.796;2023-10-19T14:13:23;2.40;;;1.20;;
77733;SDS011;66902;41.720;44.796;2023-10-19T14:18:33;11.00;;;2.60;;
77733;SDS011;66902;41.720;44.796;2023-10-19T14:21:11;8.80;;;2.90;;
77733;SDS011;66902;41.720;44.796;2023-10-19T14:23:47;1.90;;;1.00;;
77733;SDS011;66902;41.720;44.796;2023-10-19T14:26:22;8.30;;;2.20;;
77733;SDS011;66902;41.720;44.796;2023-10-19T14:28:58;2.60;;;1.30;;
77733;SDS011;66902;41.720;44.796;2023-10-19T14:31:33;6.10;;;3.20;;
77733;SDS011;66902;41.720;44.796;2023-10-19T14:34:09;4.60;;;3.50;;
77733;SDS011;66902;41.720;44.796;2023-10-19T14:36:45;15.50;;;4.00;;
77733;SDS011;66902;41.720;44.796;2023-10-19T14:39:22;6.30;;;2.10;;
77733;SDS011;66902;41.720;44.796;2023-10-19T14:41:57;1.90;;;0.90;;
77733;SDS011;66902;41.720;44.796;2023-10-19T14:44:31;5.10;;;2.50;;
77733;SDS011;66902;41.720;44.796;2023-10-19T14:47:06;3.10;;;1.40;;
77733;SDS011;66902;41.720;44.796;2023-10-19T14:49:42;12.10;;;1.80;;
77733;SDS011;66902;41.720;44.796;2023-10-19T14:52:15;7.00;;;2.40;;
77733;SDS011;66902;41.720;44.796;2023-10-19T14:57:27;4.90;;;1.40;;
77733;SDS011;66902;41.720;44.796;2023-10-19T15:00:04;5.40;;;1.40;;
77733;SDS011;66902;41.720;44.796;2023-10-19T15:02:45;6.40;;;2.30;;
77733;SDS011;66902;41.720;44.796;2023-10-19T15:05:20;4.70;;;2.10;;
77733;SDS011;66902;41.720;44.796;2023-10-19T15:07:56;3.60;;;1.40;;
77733;SDS011;66902;41.720;44.796;2023-10-19T15:10:34;3.90;;;1.60;;
77733;SDS011;66902;41.720;44.796;2023-10-19T15:13:13;6.70;;;1.90;;
77733;SDS011;66902;41.720;44.796;2023-10-19T15:15:47;7.30;;;1.40;;
77733;SDS011;66902;41.720;44.796;2023-10-19T15:18:21;2.40;;;1.50;;
77733;SDS011;66902;41.720;44.796;2023-10-19T15:20:56;5.90;;;1.60;;
77733;SDS011;66902;41.720;44.796;2023-10-19T15:23:37;2.30;;;1.40;;
77733;SDS011;66902;41.720;44.796;2023-10-19T15:26:17;5.50;;;1.50;;
77733;SDS011;66902;41.720;44.796;2023-10-19T15:28:52;4.30;;;1.90;;
77733;SDS011;66902;41.720;44.796;2023-10-19T15:31:27;4.20;;;1.60;;
77733;SDS011;66902;41.720;44.796;2023-10-19T15:34:02;2.60;;;1.40;;
77733;SDS011;66902;41.720;44.796;2023-10-19T15:36:37;6.10;;;2.10;;
77733;SDS011;66902;41.720;44.796;2023-10-19T15:39:11;7.50;;;2.40;;